createdAt,value
2022-08-17T00:01:30.262Z,23.77
2022-08-17T00:04:11.619Z,29.87
2022-08-17T00:06:38.286Z,26.33
2022-08-17T00:09:05.478Z,26.37
2022-08-17T00:11:39.692Z,19.60
2022-08-17T00:14:09.719Z,24.67
2022-08-17T00:16:55.822Z,30.20
2022-08-17T00:19:25.267Z,23.07
2022-08-17T00:22:32.623Z,23.70
2022-08-17T00:24:39.783Z,20.97
2022-08-17T00:27:06.449Z,21.23
2022-08-17T00:29:32.911Z,27.23
2022-08-17T00:31:59.557Z,29.13
2022-08-17T00:34:27.932Z,27.97
2022-08-17T00:36:54.521Z,29.50
2022-08-17T00:39:20.977Z,27.97
2022-08-17T00:41:47.685Z,24.23
2022-08-17T00:44:15.603Z,25.20
2022-08-17T00:46:43.580Z,27.00
2022-08-17T00:49:11.855Z,31.23
2022-08-17T00:51:46.734Z,30.30
2022-08-17T00:54:18.490Z,36.63
2022-08-17T00:56:48.521Z,28.57
2022-08-17T00:59:18.910Z,26.03
2022-08-17T01:01:46.442Z,22.93
2022-08-17T01:04:13.157Z,27.90
2022-08-17T01:06:40.777Z,27.97
2022-08-17T01:09:08.662Z,24.30
2022-08-17T01:11:37.126Z,23.77
2022-08-17T01:14:04.050Z,25.67
2022-08-17T01:16:31.609Z,24.50
2022-08-17T01:19:13.803Z,26.30
2022-08-17T01:22:27.116Z,26.00
2022-08-17T01:24:58.969Z,24.80
2022-08-17T01:27:26.763Z,25.33
2022-08-17T01:29:58.130Z,25.73
2022-08-17T01:32:26.683Z,32.97
2022-08-17T01:34:53.800Z,31.30
2022-08-17T01:37:28.676Z,29.60
2022-08-17T01:40:00.673Z,28.63
2022-08-17T01:42:40.357Z,27.43
2022-08-17T01:45:14.620Z,32.77
2022-08-17T01:47:41.692Z,30.13
2022-08-17T01:50:11.268Z,26.90
2022-08-17T01:52:38.125Z,35.17
2022-08-17T01:55:05.308Z,24.27
2022-08-17T01:57:31.774Z,34.07
2022-08-17T01:59:58.692Z,30.80
2022-08-17T02:02:30.908Z,29.77
2022-08-17T02:04:58.978Z,27.97
2022-08-17T02:07:26.976Z,26.43
2022-08-17T02:09:53.644Z,25.27
2022-08-17T02:12:38.538Z,35.40
2022-08-17T02:15:07.816Z,30.37
2022-08-17T02:17:35.073Z,32.47
2022-08-17T02:20:02.031Z,30.60
2022-08-17T02:22:28.929Z,27.60
2022-08-17T02:25:00.952Z,34.50
2022-08-17T02:27:28.624Z,28.07
2022-08-17T02:29:55.150Z,30.33
2022-08-17T02:32:27.832Z,28.27
2022-08-17T02:34:56.535Z,30.27
2022-08-17T02:37:23.124Z,30.63
2022-08-17T02:39:49.645Z,36.30
2022-08-17T02:42:16.292Z,26.47
2022-08-17T02:44:42.907Z,27.30
2022-08-17T02:47:11.878Z,27.70
2022-08-17T02:49:38.493Z,27.80
2022-08-17T02:52:06.603Z,27.10
2022-08-17T02:54:41.159Z,34.83
2022-08-17T02:57:09.158Z,29.73
2022-08-17T02:59:35.631Z,26.20
2022-08-17T03:02:04.354Z,26.27
2022-08-17T03:04:31.196Z,23.57
2022-08-17T03:07:01.848Z,24.40
2022-08-17T03:09:28.326Z,23.43
2022-08-17T03:11:55.832Z,21.40
2022-08-17T03:14:26.242Z,24.23
2022-08-17T03:16:53.040Z,33.80
2022-08-17T03:19:19.825Z,28.70
2022-08-17T03:21:46.261Z,26.97
2022-08-17T03:24:21.677Z,24.07
2022-08-17T03:26:55.188Z,23.60
2022-08-17T03:29:21.717Z,23.93
2022-08-17T03:31:49.211Z,27.47
2022-08-17T03:34:16.555Z,24.73
2022-08-17T03:36:43.397Z,23.50
2022-08-17T03:39:10.170Z,26.90
2022-08-17T03:41:36.912Z,24.70
2022-08-17T03:44:03.888Z,22.17
2022-08-17T03:46:49.232Z,21.20
2022-08-17T03:49:34.540Z,24.23
2022-08-17T03:52:19.824Z,23.33
2022-08-17T03:55:05.122Z,20.40
2022-08-17T03:57:32.507Z,27.90
2022-08-17T03:59:59.709Z,21.73
2022-08-17T04:02:32.500Z,24.60
2022-08-17T04:04:59.677Z,22.53
2022-08-17T04:07:30.654Z,25.20
2022-08-17T04:09:59.386Z,18.47
2022-08-17T04:12:30.972Z,21.13
2022-08-17T04:14:58.742Z,20.80
2022-08-17T04:17:27.809Z,27.13
2022-08-17T04:19:55.282Z,26.73
2022-08-17T04:22:30.847Z,26.83
2022-08-17T04:25:14.650Z,29.23
2022-08-17T04:27:41.208Z,19.43
2022-08-17T04:30:08.356Z,21.80
2022-08-17T04:33:10.644Z,20.97
2022-08-17T04:35:42.813Z,25.43
2022-08-17T04:38:11.924Z,22.90
2022-08-17T04:40:56.974Z,24.13
2022-08-17T04:43:25.001Z,19.10
2022-08-17T04:45:58.208Z,19.17
2022-08-17T04:48:36.487Z,23.30
2022-08-17T04:51:10.699Z,18.47
2022-08-17T04:53:39.236Z,24.93
2022-08-17T04:56:06.126Z,18.53
2022-08-17T04:58:32.662Z,21.60
2022-08-17T05:00:59.562Z,16.90
2022-08-17T05:03:26.147Z,17.70
2022-08-17T05:05:53.711Z,16.10
2022-08-17T05:08:21.197Z,18.27
2022-08-17T05:10:48.299Z,21.43
2022-08-17T05:13:17.601Z,17.80
2022-08-17T05:15:47.786Z,20.23
2022-08-17T05:18:14.956Z,19.43
2022-08-17T05:20:41.664Z,18.50
2022-08-17T05:23:10.702Z,16.30
2022-08-17T05:25:41.134Z,18.47
2022-08-17T05:28:08.887Z,22.97
2022-08-17T05:30:36.130Z,23.23
2022-08-17T05:33:06.611Z,19.93
2022-08-17T05:35:35.329Z,15.13
2022-08-17T05:38:02.036Z,22.27
2022-08-17T05:40:32.865Z,20.33
2022-08-17T05:43:36.602Z,20.70
2022-08-17T05:46:25.338Z,18.43
2022-08-17T05:48:55.096Z,20.10
2022-08-17T05:51:46.048Z,21.00
2022-08-17T05:54:27.208Z,15.93
2022-08-17T05:57:20.946Z,21.10
2022-08-17T05:59:50.759Z,19.40
2022-08-17T06:02:35.937Z,23.93
2022-08-17T06:05:23.491Z,17.00
2022-08-17T06:08:15.439Z,18.67
2022-08-17T06:10:47.826Z,19.10
2022-08-17T06:13:31.682Z,18.27
2022-08-17T06:16:33.554Z,19.87
2022-08-17T06:19:01.559Z,13.47
2022-08-17T06:21:33.455Z,17.13
2022-08-17T06:24:06.703Z,16.93
2022-08-17T06:26:38.554Z,20.17
2022-08-17T06:29:37.213Z,25.57
2022-08-17T06:32:05.649Z,26.17
2022-08-17T06:34:33.877Z,19.70
2022-08-17T06:37:22.021Z,18.77
2022-08-17T06:39:52.835Z,20.47
2022-08-17T06:42:54.759Z,18.15
2022-08-17T06:45:17.904Z,22.00
2022-08-17T06:48:01.156Z,16.33
2022-08-17T06:50:40.690Z,15.50
2022-08-17T06:53:23.689Z,12.38
2022-08-17T06:56:05.409Z,17.38
2022-08-17T06:58:33.396Z,11.57
2022-08-17T07:01:10.806Z,19.65
2022-08-17T07:03:45.705Z,14.60
2022-08-17T07:06:18.014Z,11.38
2022-08-17T07:08:59.749Z,12.85
2022-08-17T07:11:40.563Z,18.58
2022-08-17T07:14:37.727Z,14.82
2022-08-17T07:17:09.443Z,14.57
2022-08-17T07:19:41.094Z,18.85
2022-08-17T07:22:14.078Z,13.75
2022-08-17T07:24:58.089Z,18.15
2022-08-17T07:27:31.211Z,19.73
2022-08-17T07:30:10.226Z,19.05
2022-08-17T07:32:46.363Z,14.27
2022-08-17T07:35:40.965Z,16.92
2022-08-17T07:38:24.920Z,17.67
2022-08-17T07:41:02.113Z,16.13
2022-08-17T07:43:37.746Z,15.43
2022-08-17T07:46:44.936Z,12.27
2022-08-17T07:49:12.548Z,12.18
2022-08-17T07:51:45.737Z,16.73
2022-08-17T07:54:15.314Z,12.60
2022-08-17T07:56:53.563Z,13.93
2022-08-17T07:59:33.567Z,13.50
2022-08-17T08:02:08.183Z,15.20
2022-08-17T08:05:00.945Z,17.45
2022-08-17T08:07:35.920Z,16.42
2022-08-17T08:10:09.550Z,15.23
2022-08-17T08:13:14.199Z,12.82
2022-08-17T08:15:53.691Z,18.17
2022-08-17T08:18:53.866Z,18.75
2022-08-17T08:21:24.469Z,17.57
2022-08-17T08:24:00.277Z,14.38
2022-08-17T08:26:55.535Z,13.55
2022-08-17T08:29:28.431Z,12.83
2022-08-17T08:32:20.503Z,16.83
2022-08-17T08:35:04.916Z,16.58
2022-08-17T08:37:58.278Z,13.53
2022-08-17T08:40:45.582Z,16.85
2022-08-17T08:43:37.295Z,17.63
2022-08-17T08:46:45.721Z,10.57
2022-08-17T08:49:59.097Z,12.25
2022-08-17T08:52:37.424Z,17.27
2022-08-17T08:55:07.777Z,10.43
2022-08-17T08:57:42.618Z,15.82
2022-08-17T09:00:35.895Z,19.50
2022-08-17T09:03:28.114Z,10.90
2022-08-17T09:06:39.402Z,11.47
2022-08-17T09:09:41.775Z,13.67
2022-08-17T09:12:16.798Z,13.20
2022-08-17T09:14:53.299Z,10.87
2022-08-17T09:17:36.675Z,11.13
2022-08-17T09:20:27.177Z,15.93
2022-08-17T09:23:03.974Z,13.75
2022-08-17T09:25:33.277Z,9.02
2022-08-17T09:28:06.674Z,13.98
2022-08-17T09:30:40.723Z,9.18
2022-08-17T09:33:09.385Z,13.13
2022-08-17T09:35:44.578Z,11.18
2022-08-17T09:38:31.766Z,11.03
2022-08-17T09:41:19.545Z,11.52
2022-08-17T09:44:22.574Z,14.25
2022-08-17T09:47:06.226Z,11.97
2022-08-17T09:49:45.407Z,22.65
2022-08-17T09:52:21.234Z,10.98
2022-08-17T09:54:48.848Z,9.20
2022-08-17T09:57:42.443Z,10.98
2022-08-17T10:00:18.748Z,16.65
2022-08-17T10:02:55.796Z,11.55
2022-08-17T10:05:46.463Z,16.02
2022-08-17T10:08:28.771Z,11.25
2022-08-17T10:11:17.453Z,14.02
2022-08-17T10:13:59.647Z,13.93
2022-08-17T10:16:38.976Z,13.60
2022-08-17T10:19:18.872Z,12.67
2022-08-17T10:22:32.704Z,18.70
2022-08-17T10:25:23.960Z,13.82
2022-08-17T10:27:55.580Z,11.43
2022-08-17T10:30:25.489Z,13.48
2022-08-17T10:33:24.160Z,15.27
2022-08-17T10:35:59.491Z,15.00
2022-08-17T10:38:47.956Z,9.85
2022-08-17T10:41:27.883Z,10.43
2022-08-17T10:44:38.519Z,10.75
2022-08-17T10:47:16.663Z,11.40
2022-08-17T10:49:49.647Z,16.30
2022-08-17T10:52:19.388Z,11.43
2022-08-17T10:54:57.896Z,16.27
2022-08-17T10:57:34.499Z,11.23
2022-08-17T11:00:03.239Z,11.57
2022-08-17T11:02:37.995Z,8.52
2022-08-17T11:05:28.661Z,14.05
2022-08-17T11:08:13.968Z,9.13
2022-08-17T11:10:53.332Z,10.48
2022-08-17T11:13:38.741Z,12.05
2022-08-17T11:16:22.291Z,12.80
2022-08-17T11:19:14.845Z,15.65
2022-08-17T11:21:59.990Z,13.55
2022-08-17T11:24:43.391Z,11.70
2022-08-17T11:27:20.136Z,10.45
2022-08-17T11:30:01.474Z,10.27
2022-08-17T11:32:34.016Z,13.15
2022-08-17T11:35:21.898Z,11.90
2022-08-17T11:38:15.052Z,14.02
2022-08-17T11:41:05.754Z,14.25
2022-08-17T11:43:55.457Z,16.98
2022-08-17T11:47:07.940Z,14.43
2022-08-17T11:50:08.213Z,17.45
2022-08-17T11:52:38.642Z,12.35
2022-08-17T11:55:33.505Z,14.48
2022-08-17T11:58:01.887Z,14.13
2022-08-17T12:00:40.684Z,12.52
2022-08-17T12:03:43.406Z,13.18
2022-08-17T12:06:30.498Z,11.25
2022-08-17T12:09:18.400Z,11.02
2022-08-17T12:12:12.763Z,15.52
2022-08-17T12:15:11.543Z,11.43
2022-08-17T12:17:42.736Z,9.82
2022-08-17T12:20:31.089Z,14.45
2022-08-17T12:23:06.553Z,11.77
2022-08-17T12:25:58.302Z,12.88
2022-08-17T12:28:30.755Z,13.50
2022-08-17T12:31:01.644Z,15.77
2022-08-17T12:33:31.139Z,11.50
2022-08-17T12:36:03.321Z,11.07
2022-08-17T12:38:36.276Z,11.93
2022-08-17T12:41:25.123Z,10.67
2022-08-17T12:44:04.568Z,11.55
2022-08-17T12:46:34.128Z,15.35
2022-08-17T12:49:33.405Z,13.88
2022-08-17T12:52:04.402Z,14.07
2022-08-17T12:54:54.103Z,14.68
2022-08-17T12:57:35.084Z,12.52
2022-08-17T13:00:20.021Z,15.95
2022-08-17T13:02:51.291Z,20.45
2022-08-17T13:05:33.596Z,19.48
2022-08-17T13:08:00.297Z,19.10
2022-08-17T13:10:33.435Z,13.40
2022-08-17T13:13:17.621Z,13.00
2022-08-17T13:15:53.455Z,18.38
2022-08-17T13:18:42.317Z,16.23
2022-08-17T13:21:11.828Z,12.23
2022-08-17T13:23:38.391Z,12.10
2022-08-17T13:26:17.276Z,17.58
2022-08-17T13:28:48.518Z,17.30
2022-08-17T13:31:24.118Z,19.13
2022-08-17T13:33:51.009Z,13.65
2022-08-17T13:36:30.119Z,18.15
2022-08-17T13:39:21.255Z,13.60
2022-08-17T13:41:49.428Z,10.93
2022-08-17T13:44:37.127Z,12.40
2022-08-17T13:47:17.470Z,11.55
2022-08-17T13:49:48.659Z,11.93
2022-08-17T13:52:37.920Z,13.57
2022-08-17T13:55:17.153Z,14.20
2022-08-17T13:58:03.619Z,12.80
2022-08-17T14:00:36.248Z,9.20
2022-08-17T14:03:04.148Z,12.48
2022-08-17T14:05:31.346Z,13.70
2022-08-17T14:08:02.656Z,9.25
2022-08-17T14:10:35.857Z,12.90
2022-08-17T14:13:03.109Z,12.48
2022-08-17T14:15:55.349Z,9.38
2022-08-17T14:18:18.102Z,16.02
2022-08-17T14:21:08.302Z,14.90
2022-08-17T14:23:36.184Z,13.00
2022-08-17T14:26:03.529Z,14.98
2022-08-17T14:28:30.012Z,13.32
2022-08-17T14:31:00.348Z,16.10
2022-08-17T14:33:28.298Z,9.13
2022-08-17T14:35:56.014Z,12.13
2022-08-17T14:38:23.564Z,12.90
2022-08-17T14:40:50.277Z,10.38
2022-08-17T14:43:17.964Z,11.90
2022-08-17T14:45:44.509Z,13.32
2022-08-17T14:48:11.165Z,18.17
2022-08-17T14:50:41.077Z,13.80
2022-08-17T14:53:09.997Z,13.52
2022-08-17T14:55:39.877Z,14.52
2022-08-17T14:58:06.959Z,10.60
2022-08-17T15:00:33.854Z,11.43
2022-08-17T15:03:01.289Z,13.48
2022-08-17T15:05:31.645Z,10.93
2022-08-17T15:07:59.375Z,13.60
2022-08-17T15:10:26.125Z,12.27
2022-08-17T15:12:52.730Z,16.20
2022-08-17T15:15:19.880Z,12.13
2022-08-17T15:17:46.449Z,16.03
2022-08-17T15:20:18.749Z,9.93
2022-08-17T15:22:46.804Z,10.70
2022-08-17T15:25:14.249Z,13.40
2022-08-17T15:27:40.859Z,13.43
2022-08-17T15:30:08.547Z,16.52
2022-08-17T15:32:38.105Z,13.38
2022-08-17T15:35:06.740Z,14.02
2022-08-17T15:37:33.411Z,12.23
2022-08-17T15:40:01.294Z,10.95
2022-08-17T15:42:27.964Z,15.02
2022-08-17T15:44:57.604Z,14.18
2022-08-17T15:47:24.879Z,13.10
2022-08-17T15:49:53.581Z,10.20
2022-08-17T15:52:27.692Z,20.60
2022-08-17T15:54:59.662Z,16.30
2022-08-17T15:57:27.460Z,15.65
2022-08-17T15:59:59.028Z,17.75
2022-08-17T16:03:15.987Z,14.90
2022-08-17T16:05:24.094Z,12.98
2022-08-17T16:07:52.072Z,12.70
2022-08-17T16:10:19.497Z,13.88
2022-08-17T16:12:48.473Z,16.52
2022-08-17T16:15:16.586Z,10.18
2022-08-17T16:17:43.090Z,13.30
2022-08-17T16:20:19.928Z,13.98
2022-08-17T16:22:48.685Z,15.15
2022-08-17T16:25:21.285Z,15.95
2022-08-17T16:27:53.528Z,15.60
2022-08-17T16:30:23.186Z,15.63
2022-08-17T16:32:54.320Z,13.32
2022-08-17T16:35:22.711Z,20.75
2022-08-17T16:37:49.507Z,18.37
2022-08-17T16:40:16.845Z,13.52
2022-08-17T16:42:45.893Z,15.18
2022-08-17T16:45:18.483Z,18.15
2022-08-17T16:47:45.473Z,15.23
2022-08-17T16:50:13.925Z,13.38
2022-08-17T16:52:40.825Z,15.32
2022-08-17T16:55:09.365Z,12.68
2022-08-17T16:57:47.505Z,12.85
2022-08-17T17:00:19.204Z,14.33
2022-08-17T17:02:47.770Z,16.90
2022-08-17T17:05:25.198Z,20.10
2022-08-17T17:08:04.020Z,17.13
2022-08-17T17:10:43.277Z,14.00
2022-08-17T17:13:14.729Z,16.58
2022-08-17T17:15:55.180Z,17.73
2022-08-17T17:18:30.318Z,15.75
2022-08-17T17:20:58.218Z,20.42
2022-08-17T17:23:38.569Z,13.45
2022-08-17T17:26:23.748Z,15.07
2022-08-17T17:29:05.763Z,15.57
2022-08-17T17:31:38.438Z,17.05
2022-08-17T17:34:07.340Z,14.53
2022-08-17T17:36:52.638Z,15.68
2022-08-17T17:39:33.589Z,14.57
2022-08-17T17:42:07.772Z,15.68
2022-08-17T17:44:39.192Z,20.02
2022-08-17T17:47:06.075Z,12.27
2022-08-17T17:49:39.687Z,15.05
2022-08-17T17:52:19.174Z,14.70
2022-08-17T17:55:25.533Z,20.45
2022-08-17T17:58:11.009Z,18.40
2022-08-17T18:00:40.549Z,35.53
2022-08-17T18:03:40.358Z,22.92
2022-08-17T18:06:12.605Z,20.42
2022-08-17T18:08:50.746Z,20.93
2022-08-17T18:11:41.392Z,20.08
2022-08-17T18:14:27.428Z,18.73
2022-08-17T18:16:56.743Z,27.83
2022-08-17T18:19:25.567Z,21.50
2022-08-17T18:22:03.345Z,19.88
2022-08-17T18:24:39.574Z,19.17
2022-08-17T18:27:37.548Z,18.23
2022-08-17T18:30:27.618Z,27.73
2022-08-17T18:32:54.295Z,18.93
2022-08-17T18:35:22.235Z,22.97
2022-08-17T18:37:52.614Z,24.15
2022-08-17T18:40:19.633Z,21.17
2022-08-17T18:42:55.522Z,18.77
2022-08-17T18:45:33.556Z,23.55
2022-08-17T18:48:00.933Z,21.23
2022-08-17T18:50:36.479Z,20.17
2022-08-17T18:53:30.177Z,19.73
2022-08-17T18:56:27.852Z,26.63
2022-08-17T18:59:04.428Z,15.13
2022-08-17T19:02:03.303Z,23.83
2022-08-17T19:04:39.463Z,20.80
2022-08-17T19:07:13.176Z,19.50
2022-08-17T19:09:49.252Z,18.60
2022-08-17T19:12:44.589Z,28.97
2022-08-17T19:15:14.188Z,25.17
2022-08-17T19:17:50.234Z,24.43
2022-08-17T19:20:27.084Z,25.10
2022-08-17T19:23:07.290Z,19.55
2022-08-17T19:25:38.281Z,21.27
2022-08-17T19:28:22.225Z,20.67
2022-08-17T19:30:54.206Z,29.10
2022-08-17T19:33:20.904Z,27.90
2022-08-17T19:35:55.538Z,24.47
2022-08-17T19:38:34.280Z,21.37
2022-08-17T19:41:07.723Z,27.90
2022-08-17T19:44:07.051Z,23.37
2022-08-17T19:46:56.362Z,22.07
2022-08-17T19:49:52.786Z,22.47
2022-08-17T19:52:37.672Z,21.23
2022-08-17T19:55:30.663Z,32.30
2022-08-17T19:58:18.058Z,24.37
2022-08-17T20:00:50.321Z,17.90
2022-08-17T20:03:28.364Z,22.27
2022-08-17T20:06:12.669Z,22.00
2022-08-17T20:08:45.094Z,23.70
2022-08-17T20:11:19.892Z,24.23
2022-08-17T20:13:59.041Z,27.40
2022-08-17T20:16:26.175Z,20.60
2022-08-17T20:18:59.812Z,27.53
2022-08-17T20:21:37.293Z,21.50
2022-08-17T20:24:17.994Z,23.90
2022-08-17T20:26:57.981Z,25.40
2022-08-17T20:29:37.445Z,22.47
2022-08-17T20:32:15.082Z,20.43
2022-08-17T20:34:45.520Z,24.20
2022-08-17T20:37:14.739Z,25.17
2022-08-17T20:40:09.576Z,26.67
2022-08-17T20:42:36.993Z,24.40
2022-08-17T20:45:25.106Z,26.90
2022-08-17T20:48:30.872Z,23.37
2022-08-17T20:50:52.751Z,21.83
2022-08-17T20:53:54.043Z,28.47
2022-08-17T20:56:45.097Z,21.97
2022-08-17T20:59:20.421Z,23.33
2022-08-17T21:02:08.055Z,26.87
2022-08-17T21:05:00.767Z,21.87
2022-08-17T21:07:33.043Z,28.77
2022-08-17T21:10:28.297Z,20.13
2022-08-17T21:13:16.019Z,24.37
2022-08-17T21:15:48.529Z,25.70
2022-08-17T21:18:18.370Z,28.43
2022-08-17T21:21:06.695Z,32.43
2022-08-17T21:23:49.617Z,27.03
2022-08-17T21:26:32.760Z,26.57
2022-08-17T21:29:17.906Z,26.77
2022-08-17T21:32:05.383Z,30.43
2022-08-17T21:34:43.337Z,29.87
2022-08-17T21:37:30.874Z,26.07
2022-08-17T21:40:19.661Z,25.50
2022-08-17T21:42:49.510Z,29.23
2022-08-17T21:45:37.506Z,21.23
2022-08-17T21:48:08.997Z,24.20
2022-08-17T21:50:35.998Z,20.87
2022-08-17T21:53:03.463Z,20.47
2022-08-17T21:55:31.782Z,26.20
2022-08-17T21:58:14.742Z,23.77
2022-08-17T22:00:44.038Z,24.13
2022-08-17T22:03:23.465Z,21.40
2022-08-17T22:05:51.555Z,22.97
2022-08-17T22:08:21.285Z,25.53
2022-08-17T22:10:50.512Z,24.03
2022-08-17T22:13:17.608Z,24.53
2022-08-17T22:15:50.287Z,21.90
2022-08-17T22:18:27.189Z,26.70
2022-08-17T22:20:56.809Z,25.70
2022-08-17T22:23:54.130Z,25.07
2022-08-17T22:26:23.066Z,20.30
2022-08-17T22:28:56.647Z,24.50
2022-08-17T22:31:25.326Z,18.23
2022-08-17T22:33:59.791Z,22.63
2022-08-17T22:36:33.907Z,23.13
2022-08-17T22:39:01.379Z,21.90
2022-08-17T22:41:47.028Z,20.30
2022-08-17T22:44:17.715Z,29.40
2022-08-17T22:47:13.886Z,23.00
2022-08-17T22:49:57.128Z,20.93
2022-08-17T22:53:01.652Z,20.17
2022-08-17T22:55:48.998Z,27.73
2022-08-17T22:58:37.385Z,23.43
2022-08-17T23:01:28.609Z,20.30
2022-08-17T23:04:07.262Z,27.43
2022-08-17T23:06:35.225Z,21.20
2022-08-17T23:09:04.370Z,24.63
2022-08-17T23:11:48.615Z,24.50
2022-08-17T23:14:20.496Z,26.63
2022-08-17T23:16:48.962Z,28.63
2022-08-17T23:19:20.211Z,19.60
2022-08-17T23:21:47.077Z,23.13
2022-08-17T23:24:25.564Z,21.80
2022-08-17T23:26:52.244Z,20.30
2022-08-17T23:29:21.329Z,22.87
2022-08-17T23:31:49.186Z,30.30
2022-08-17T23:34:18.307Z,26.97
2022-08-17T23:36:50.533Z,29.40
2022-08-17T23:39:24.703Z,24.47
2022-08-17T23:41:56.828Z,26.00
2022-08-17T23:44:23.468Z,24.90
2022-08-17T23:46:54.005Z,26.33
2022-08-17T23:49:20.871Z,25.63
2022-08-17T23:51:48.123Z,22.00
2022-08-17T23:54:35.453Z,30.60
2022-08-17T23:57:04.720Z,26.33
2022-08-17T23:59:33.369Z,27.87
